Glenshire Elementary, Truckee, California Weather observations

Data are for observation ending at time listed.
 Day   Time    Ave.   Ave.  Ave.  Vector   Max.   Stn.    Total    Solar   Ave.   Snow 
  of    of     Air    Rel.  Wind   Wind    Wind   Baro.  Precip.   Rad.    Soil   Depth
Year   Day     Temp.  Hum.  Speed  Dir.    Gust   Pres.                    Temp.       
2014   (PST)    F      %     mph   deg.    mph     mb.     in.     W/m2     F      in. 
---------------------------------------------------------------------------------------  
 296   21:20   40.3    57    0.4   255      0.4   821.2    0.00       0    55.4   999.0
 296   21:30   40.0    57    0.4   242      0.4   821.2    0.00       0    55.4   999.0
 296   21:40   39.0    58    0.4   244      0.4   821.2    0.00       0    55.4   999.0
 296   21:50   38.6    60    0.4   244      0.4   821.2    0.00       0    55.4   999.0
 296   22:00   38.3    60    0.4   244      0.4   821.1    0.00       0    55.4   999.0
 296   22:10   37.6    62    0.8   249      3.8   821.0    0.00       0    55.4   999.0
 296   22:20   37.3    61    0.4   251      0.4   821.0    0.00       0    55.4   999.0
 296   22:30   36.9    60    0.4   241      0.4   821.0    0.00       0    55.4   999.0
 296   22:40   36.7    60    0.5   135      3.8   821.0    0.00       0    55.4   999.0
 296   22:50   37.1    58    0.4   235      0.4   821.0    0.00       0    55.4   999.0
 296   23:00   37.8    57    0.5   254      2.9   821.0    0.00       0    55.4   999.0
 296   23:10   37.8    56    0.4   234      0.4   821.1    0.00       0    55.4   999.0
 296   23:20   37.3    57    0.4   231      0.4   821.1    0.00       0    55.4   999.0
 296   23:30   37.2    57    0.4   254      0.4   821.2    0.00       0    55.4   999.0
 296   23:40   37.5    57    0.4   227      0.4   821.2    0.00       0    55.4   999.0
 296   23:50   37.7    57    0.4   206      0.4   821.2    0.00       0    55.4   999.0
 297    0:00   37.0    58    0.4   245      0.4   821.2    0.00       0    55.4   999.0
 297    0:10   36.5    59    0.4   228      0.4   821.2    0.00       0    55.4   999.0
 297    0:20   36.5    59    0.4   239      0.4   821.2    0.00       0    55.4   999.0
 297    0:30   36.8    58    0.4   233      0.4   821.2    0.00       0    55.4   999.0
 297    0:40   36.3    59    0.4   248      0.4   821.2    0.00       0    55.4   999.0
 297    0:50   36.2    60    0.4   236      0.4   821.2    0.00       0    55.4   999.0
 297    1:00   35.9    60    0.4   233      0.4   821.1    0.00       0    55.4   999.0
 297    1:10   35.3    62    0.4   248      0.4   821.1    0.00       0    55.4   999.0
 297    1:20   35.8    61    0.4   230      0.4   821.0    0.00       0    55.4   999.0
 297    1:30   35.6    62    0.4   246      0.4   820.9    0.00       0    55.4   999.0
 297    1:40   35.5    63    0.4   233      0.4   820.8    0.00       0    55.4   999.0
 297    1:50   35.3    62    0.4   238      0.4   820.8    0.00       0    55.4   999.0
 297    2:00   35.0    62    0.4   240      0.4   820.7    0.00       0    55.4   999.0
 297    2:10   34.9    62    0.4   238      0.4   820.7    0.00       0    55.4   999.0
 297    2:20   35.0    62    0.4   242      0.4   820.7    0.00       0    55.4   999.0
 297    2:30   34.4    64    0.4   238      0.4   820.6    0.00       0    55.3   999.0
 297    2:40   34.4    64    0.4   246      0.4   820.6    0.00       0    55.3   999.0
 297    2:50   34.6    64    0.4   242      0.4   820.6    0.00       0    55.3   999.0
 297    3:00   35.0    63    0.4   253      0.4   820.6    0.00       0    55.3   999.0
 297    3:10   35.0    61    0.4   241      0.4   820.5    0.00       0    55.3   999.0
 297    3:20   34.5    61    0.4   242      0.4   820.4    0.00       0    55.3   999.0
 297    3:30   35.2    59    0.4   238      0.4   820.3    0.00       0    55.3   999.0
 297    3:40   35.8    58    0.4   250      0.4   820.3    0.00       0    55.3   999.0
 297    3:50   35.6    58    0.4   237      0.4   820.3    0.00       0    55.3   999.0
 297    4:00   36.1    56    0.4   235      0.4   820.4    0.00       0    55.3   999.0
 297    4:10   36.4    56    0.4   238      0.4   820.4    0.00       0    55.3   999.0
 297    4:20   36.4    57    0.4   241      0.4   820.5    0.00       0    55.3   999.0
 297    4:30   35.9    59    0.4   236      0.4   820.5    0.00       0    55.3   999.0
 297    4:40   35.9    59    0.4   234      0.4   820.6    0.00       0    55.3   999.0
 297    4:50   36.4    58    0.4   239      0.4   820.6    0.00       0    55.3   999.0
 297    5:00   35.6    59    0.4   236      0.4   820.6    0.00       0    55.3   999.0
 297    5:10   35.9    58    0.4   243      0.4   820.7    0.00       0    55.3   999.0
 297    5:20   35.7    58    0.4   236      0.4   820.7    0.00       0    55.3   999.0
 297    5:30   35.5    58    0.4   247      0.4   820.7    0.00       0    55.3   999.0
 297    5:40   35.8    57    0.4   239      0.4   820.7    0.00       0    55.3   999.0
 297    5:50   36.9    54    0.4   283      0.4   820.7    0.00       0    55.3   999.0
 297    6:00   37.4    52    0.4   267      0.4   820.7    0.00       0    55.3   999.0
 297    6:10   36.8    54    0.4   247      0.4   820.7    0.00       0    55.3   999.0
 297    6:20   36.3    54    0.4   258      0.4   820.8    0.00       0    55.3   999.0
 297    6:30   36.3    54    0.4   248      0.4   820.9    0.00       0    55.3   999.0
 297    6:40   36.6    54    0.4   250      0.4   820.9    0.00       0    55.3   999.0
 297    6:50   36.1    55    0.4   246      0.4   821.0    0.00       0    55.3   999.0
 297    7:00   36.2    55    0.4   264      0.4   821.0    0.00       0    55.3   999.0
 297    7:10   37.1    54    0.4   272      0.4   821.0    0.00      21    55.3   999.0
 297    7:20   39.7    50    0.4   240      0.4   821.1    0.00      42    55.3   999.0
 297    7:30   41.3    49    0.4   249      0.4   821.1    0.00      12    55.3   999.0
 297    7:40   41.8    49    0.4   254      1.2   821.2    0.00       0    55.3   999.0
 297    7:50   43.2    49    0.4   249      0.4   821.2    0.00       0    55.3   999.0
 297    8:00   45.2    46    0.4   252      0.4   821.2    0.00       2    55.3   999.0
 297    8:10   48.2    42    0.4   312      0.4   821.2    0.00       0    55.3   999.0
 297    8:20   50.4    38    0.4    48      0.4   821.2    0.00     151    55.3   999.0
 297    8:30   53.2    34    0.4    86      0.4   821.2    0.00     322    55.3   999.0
 297    8:40   55.8    31    0.4    69      2.1   821.2    0.00     337    55.3   999.0
 297    8:50   57.7    29    0.4    76      1.2   821.2    0.00     386    55.3   999.0
 297    9:00   59.2    27    0.5    89      2.9   821.1    0.00     386    55.4   999.0
 297    9:10   60.7    26    1.9    72      7.1   821.1    0.00     419    55.4   999.0
 297    9:20   61.7    25    1.1    61      7.1   821.1    0.00     451    55.3   999.0
 297    9:30   62.9    23    1.7    54      7.1   821.0    0.00     450    55.3   999.0
 297    9:40   63.4    22    1.8    56     10.5   821.0    0.00     470    55.4   999.0
 297    9:50   63.9    22    1.2    67     12.1   820.9    0.00     514    55.4   999.0
 297   10:00   64.4    21    2.3    55     13.8   820.8    0.00     515    55.4   999.0
 297   10:10   64.9    20    3.3    64     11.3   820.8    0.00     515    55.3   999.0
 297   10:20   65.4    20    2.0    72     12.1   820.7    0.00     520    55.3   999.0
 297   10:30   65.4    20    4.5    76     13.0   820.6    0.00     545    55.3   999.0
 297   10:40   66.0    20    2.1    61     12.1   820.6    0.00     547    55.3   999.0
 297   10:50   66.5    19    2.8    72     11.3   820.5    0.00     547    55.3   999.0
 297   11:00   66.5    17    4.0    70     13.8   820.4    0.00     547    55.3   999.0
 297   11:10   66.6    16    3.1    70     14.7   820.3    0.00     547    55.3   999.0
 297   11:20   67.0    14    3.7    68     16.3   820.2    0.00     547    55.3   999.0
 297   11:30   67.3    14    3.9    61     10.5   820.1    0.00     547    55.3   999.0
 297   11:40   67.9    15    3.3    50      9.6   820.0    0.00     557    55.3   999.0
 297   11:50   68.6    14    2.4    43     10.5   819.9    0.00     557    55.3   999.0
 297   12:00   68.5    15    3.2    53     11.3   819.8    0.00     549    55.3   999.0
 297   12:10   68.7    16    1.8    60      8.0   819.7    0.00     437    55.3   999.0
 297   12:20   68.6    16    3.6    63     12.1   819.6    0.00     511    55.2   999.0
 297   12:30   69.2    16    3.0    63      9.6   819.5    0.00     547    55.2   999.0
 297   12:40   69.1    16    3.1    61     10.5   819.4    0.00     547    55.2   999.0
 297   12:50   69.7    16    2.5    74      8.8   819.4    0.00     547    55.2   999.0
 297   13:00   69.7    16    4.3    66     14.7   819.3    0.00     547    55.2   999.0
 297   13:10   69.0    17    3.4    60     13.8   819.2    0.00     542    55.2   999.0
 297   13:20   69.6    17    4.0    72     13.8   819.1    0.00     518    55.2   999.0
 297   13:30   69.5    17    3.2    64     11.3   819.1    0.00     515    55.2   999.0
 297   13:40   70.0    16    1.3    46     10.5   819.0    0.00     514    55.2   999.0
 297   13:50   69.9    16    3.6    61     14.7   819.0    0.00     513    55.2   999.0
 297   14:00   69.5    15    3.7    58     13.0   818.9    0.00     466    55.2   999.0
 297   14:10   69.2    16    2.8    54     11.3   818.9    0.00     450    55.2   999.0
 297   14:20   69.4    15    3.6    65     14.7   818.9    0.00     446    55.2   999.0
 297   14:30   69.3    16    2.3    44     13.0   818.9    0.00     422    55.3   999.0
 297   14:40   68.9    16    2.4    48     13.8   818.9    0.00     386    55.2   999.0
 297   14:50   67.9    16    2.7    38     10.5   818.9    0.00     176    55.2   999.0
 297   15:00   66.7    17    3.0    48     12.1   818.8    0.00      65    55.1   999.0
 297   15:10   66.5    17    2.4    40     11.3   818.8    0.00      52    55.2   999.0
 297   15:20   66.4    17    2.8    31     12.1   818.8    0.00     101    55.2   999.0
 297   15:30   65.6    17    3.3    54     13.8   818.8    0.00      61    55.2   999.0
 297   15:40   65.8    16    2.7    41     13.0   818.8    0.00      59    55.2   999.0
 297   15:50   66.4    16    2.4    57     25.6   818.7    0.00     186    55.3   999.0
 297   16:00   65.7    16    2.7    37      9.6   818.6    0.00     181    55.3   999.0
 297   16:10   64.0    18    2.5    46      8.0   818.6    0.00      44    55.2   999.0
 297   16:20   62.8    18    3.1    65      8.8   818.6    0.00       0    55.2   999.0
 297   16:30   62.1    19    2.7    60      7.1   818.5    0.00       0    55.2   999.0
 297   16:40   61.6    19    1.7    53     13.8   818.5    0.00       0    55.2   999.0
 297   16:50   61.1    20    3.2    52     13.0   818.5    0.00       0    55.2   999.0
 297   17:00   60.5    20    2.3    57     14.7   818.5    0.00       0    55.2   999.0
 297   17:10   59.7    21    2.2    61     13.0   818.5    0.00       0    55.2   999.0
 297   17:20   59.3    22    3.0    69     14.7   818.4    0.00       0    55.2   999.0
 297   17:30   59.0    22    2.7    73      8.8   818.4    0.00       0    55.2   999.0
 297   17:40   58.5    23    2.3    49      9.6   818.5    0.00       0    55.2   999.0
 297   17:50   58.5    23    2.0    40     12.1   818.5    0.00       0    55.2   999.0
 297   18:00   57.9    24    1.5    50      7.1   818.5    0.00       0    55.2   999.0
 297   18:10   57.5    25    1.5    46      6.3   818.7    0.00       0    55.2   999.0
 297   18:20   57.1    25    1.3   267      5.4   818.8    0.00       0    55.2   999.0
 297   18:30   56.4    26    0.8   294      3.8   818.8    0.00       0    55.2   999.0
 297   18:40   55.5    27    0.6   102      3.8   818.8    0.00       0    55.2   999.0
 297   18:50   54.9    27    0.6   260      2.9   818.9    0.00       0    55.2   999.0
 297   19:00   54.7    28    0.5   299      2.1   818.9    0.00       0    55.2   999.0
 297   19:10   53.8    29    0.4   248      0.4   818.9    0.00       0    55.2   999.0
 297   19:20   53.4    29    0.4   254      0.4   818.9    0.00       0    55.2   999.0
 297   19:30   52.1    30    0.4   266      2.1   819.0    0.00       0    55.2   999.0
 297   19:40   50.9    31    0.4   220      0.4   819.0    0.00       0    55.2   999.0
 297   19:50   50.4    31    0.5   321      5.4   819.0    0.00       0    55.2   999.0
 297   20:00   50.4    31    0.4   278      0.4   819.0    0.00       0    55.2   999.0
 297   20:10   49.7    32    0.5   270      3.8   819.1    0.00       0    55.2   999.0
 297   20:20   48.9    33    0.6   265      3.8   819.1    0.00       0    55.2   999.0
 297   20:30   48.6    33    0.5   284      2.1   819.1    0.00       0    55.2   999.0
 297   20:40   49.0    32    0.6   302      5.4   819.0    0.00       0    55.2   999.0
 297   20:50   48.7    32    0.4   284      0.4   819.0    0.00       0    55.2   999.0
 297   21:00   49.3    31    0.4   293      0.4   819.0    0.00       0    55.2   999.0
 297   21:10   49.0    31    0.6   170      3.8   819.0    0.00       0    55.2   999.0

Return to Glenshire Elementary graphs page.


Western Regional Climate Center,wrcc@dri.edu